Atlin, Canada
Current Conditions -  °F | °C
As of 12:53 AM on Saturday 20 Dec 2014 (Local Time) from PAGY Reporting Station
Overcast Overcast  
Wind Chill: 21°   Ceiling: 9000
Heat Index: 33°   Visibility: 10mi
Dew Point: 17°   Wind: 21mph
Humidity: 52%   Direction: 50°NE
Pressure: 29.3"   Gusts: NA
Location:  59.58°N, 133.72°W
Report Text: PAGY 200853Z AUTO 05018KT 10SM OVC090 01/M08 A2930 RMK AO2 PK WND 05032/0832 SLP921 T00061083 400170000 58004 TSNO
Loading
Personal Weather Stations






























Interactive Weather Map New forecast layout! Learn more

10-Day Weather Forecast

Advertisements
Track Severe Weather on mobile